createdAt,value
2022-10-26T00:01:47.695Z,87.63
2022-10-26T00:06:53.712Z,87.93
2022-10-26T00:12:00.853Z,88.04
2022-10-26T00:17:06.706Z,88.39
2022-10-26T00:22:13.668Z,88.28
2022-10-26T00:27:21.007Z,88.28
2022-10-26T00:32:27.077Z,88.58
2022-10-26T00:37:32.925Z,88.08
2022-10-26T00:42:40.369Z,88.31
2022-10-26T00:47:50.485Z,88.71
2022-10-26T00:52:59.661Z,88.83
2022-10-26T00:58:10.751Z,88.36
2022-10-26T01:03:17.297Z,88.13
2022-10-26T01:08:24.139Z,88.29
2022-10-26T01:13:36.139Z,88.26
2022-10-26T01:18:49.244Z,88.40
2022-10-26T01:24:25.002Z,88.15
2022-10-26T01:30:19.891Z,87.73
2022-10-26T01:35:33.331Z,87.97
2022-10-26T01:40:47.250Z,87.97
2022-10-26T01:45:56.253Z,88.26
2022-10-26T01:51:03.197Z,87.86
2022-10-26T01:56:19.527Z,88.16
2022-10-26T02:01:46.632Z,87.77
2022-10-26T02:07:03.852Z,87.84
2022-10-26T02:12:21.523Z,87.49
2022-10-26T02:17:35.115Z,87.79
2022-10-26T02:22:45.840Z,88.36
2022-10-26T02:27:56.908Z,88.17
2022-10-26T02:33:06.980Z,88.33
2022-10-26T02:38:18.227Z,88.31
2022-10-26T02:43:25.090Z,88.14
2022-10-26T02:48:33.262Z,87.75
2022-10-26T02:53:47.965Z,87.47
2022-10-26T02:58:59.703Z,87.67
2022-10-26T03:04:07.481Z,87.57
2022-10-26T03:09:13.309Z,87.40
2022-10-26T03:14:19.537Z,87.29
2022-10-26T03:19:27.131Z,87.43
2022-10-26T03:24:33.158Z,87.71
2022-10-26T03:29:40.220Z,87.85
2022-10-26T03:34:47.738Z,87.78
2022-10-26T03:39:53.750Z,87.70
2022-10-26T03:44:59.621Z,87.53
2022-10-26T03:50:08.098Z,87.51
2022-10-26T03:55:14.032Z,87.61
2022-10-26T04:00:20.705Z,87.65
2022-10-26T04:05:30.445Z,87.62
2022-10-26T04:10:36.687Z,87.48
2022-10-26T04:15:43.576Z,88.17
2022-10-26T04:20:50.961Z,88.17
2022-10-26T04:25:56.984Z,88.03
2022-10-26T04:31:02.913Z,88.11
2022-10-26T04:36:11.288Z,87.90
2022-10-26T04:41:17.835Z,88.06
2022-10-26T04:46:23.761Z,87.94
2022-10-26T04:51:31.076Z,87.88
2022-10-26T04:56:37.157Z,87.77
2022-10-26T05:01:43.146Z,87.34
2022-10-26T05:06:50.811Z,87.48
2022-10-26T05:11:56.676Z,87.62
2022-10-26T05:17:02.486Z,87.38
2022-10-26T05:22:11.837Z,87.32
2022-10-26T05:27:18.879Z,87.32
2022-10-26T05:32:25.744Z,87.48
2022-10-26T05:37:33.161Z,87.66
2022-10-26T05:42:40.342Z,87.83
2022-10-26T05:47:47.770Z,87.44
2022-10-26T05:52:56.154Z,87.40
2022-10-26T05:58:02.954Z,87.29
2022-10-26T06:08:43.894Z,87.34
2022-10-26T06:13:51.064Z,86.96
2022-10-26T06:19:14.806Z,86.85
2022-10-26T06:24:30.833Z,87.03
2022-10-26T06:29:50.331Z,86.82
2022-10-26T06:35:13.669Z,87.20
2022-10-26T06:40:22.684Z,86.98
2022-10-26T06:45:29.258Z,86.98
2022-10-26T06:50:42.757Z,86.71
2022-10-26T06:55:52.526Z,86.97
2022-10-26T07:00:59.621Z,86.40
2022-10-26T07:06:06.443Z,87.03
2022-10-26T07:11:13.830Z,86.81
2022-10-26T07:16:21.407Z,86.37
2022-10-26T07:21:27.652Z,86.51
2022-10-26T07:26:34.893Z,86.81
2022-10-26T07:31:40.820Z,86.99
2022-10-26T07:36:47.061Z,86.77
2022-10-26T07:41:56.222Z,86.72
2022-10-26T07:47:02.293Z,86.96
2022-10-26T07:52:08.768Z,87.23
2022-10-26T07:57:18.371Z,86.95
2022-10-26T08:02:25.576Z,86.81
2022-10-26T08:07:31.832Z,86.71
2022-10-26T08:12:40.417Z,86.96
2022-10-26T08:17:50.194Z,86.76
2022-10-26T08:23:01.404Z,87.13
2022-10-26T08:28:08.881Z,87.09
2022-10-26T08:33:14.753Z,86.89
2022-10-26T08:38:20.725Z,87.10
2022-10-26T08:43:35.695Z,86.83
2022-10-26T08:48:46.074Z,86.95
2022-10-26T08:53:58.763Z,86.65
2022-10-26T08:59:19.485Z,87.01
2022-10-26T09:04:30.192Z,86.66
2022-10-26T09:09:47.706Z,86.87
2022-10-26T09:15:12.732Z,86.44
2022-10-26T09:20:56.084Z,86.10
2022-10-26T09:26:04.454Z,86.41
2022-10-26T09:31:18.651Z,86.25
2022-10-26T09:36:25.497Z,86.60
2022-10-26T09:41:43.704Z,86.38
2022-10-26T09:47:00.104Z,86.26
2022-10-26T09:52:06.370Z,86.26
2022-10-26T09:57:17.311Z,86.41
2022-10-26T10:02:44.231Z,86.32
2022-10-26T10:07:50.861Z,86.04
2022-10-26T10:12:56.904Z,86.36
2022-10-26T10:18:04.349Z,86.12
2022-10-26T10:23:32.121Z,85.73
2022-10-26T10:28:38.410Z,85.94
2022-10-26T10:33:47.069Z,85.87
2022-10-26T10:38:55.052Z,85.79
2022-10-26T10:44:09.351Z,86.16
2022-10-26T10:49:27.799Z,85.70
2022-10-26T10:54:37.430Z,85.68
2022-10-26T11:00:01.340Z,85.33
2022-10-26T11:05:38.573Z,85.62
2022-10-26T11:10:51.866Z,85.80
2022-10-26T11:16:04.553Z,85.47
2022-10-26T11:21:27.157Z,85.77
2022-10-26T11:26:42.349Z,85.30
2022-10-26T11:32:04.126Z,85.36
2022-10-26T11:37:17.142Z,85.39
2022-10-26T11:42:32.276Z,84.79
2022-10-26T11:47:45.935Z,85.10
2022-10-26T11:53:00.065Z,85.38
2022-10-26T11:58:06.919Z,85.03
2022-10-26T12:03:18.452Z,84.99
2022-10-26T12:08:33.767Z,85.44
2022-10-26T12:13:49.932Z,85.35
2022-10-26T12:19:02.842Z,85.67
2022-10-26T12:24:30.326Z,85.71
2022-10-26T12:30:10.993Z,86.04
2022-10-26T12:35:40.474Z,85.79
2022-10-26T12:41:28.034Z,85.38
2022-10-26T12:46:43.559Z,85.48
2022-10-26T12:51:51.209Z,85.28
2022-10-26T12:57:21.427Z,85.07
2022-10-26T13:02:50.674Z,84.78
2022-10-26T13:08:05.198Z,85.04
2022-10-26T13:13:25.617Z,85.01
2022-10-26T13:18:45.004Z,84.33
2022-10-26T13:24:10.196Z,85.02
2022-10-26T13:29:34.430Z,84.67
2022-10-26T13:34:44.301Z,84.81
2022-10-26T13:39:56.189Z,84.31
2022-10-26T13:45:10.435Z,84.32
2022-10-26T13:50:33.342Z,84.21
2022-10-26T13:56:07.393Z,84.55
2022-10-26T14:01:30.608Z,84.38
2022-10-26T14:06:43.190Z,84.78
2022-10-26T14:11:53.847Z,84.90
2022-10-26T14:17:02.707Z,84.92
2022-10-26T14:22:11.050Z,85.07
2022-10-26T14:27:22.790Z,84.85
2022-10-26T14:32:33.872Z,85.21
2022-10-26T14:37:53.465Z,85.26
2022-10-26T14:43:05.263Z,85.01
2022-10-26T14:48:30.758Z,85.07
2022-10-26T14:53:41.694Z,85.30
2022-10-26T14:58:47.942Z,85.18
2022-10-26T15:04:01.938Z,85.29
2022-10-26T15:09:35.306Z,85.09
2022-10-26T15:14:45.356Z,84.76
2022-10-26T15:19:55.419Z,84.18
2022-10-26T15:25:07.262Z,84.39
2022-10-26T15:30:27.625Z,84.18
2022-10-26T15:35:35.494Z,84.12
2022-10-26T15:40:47.821Z,83.12
2022-10-26T15:45:55.461Z,83.28
2022-10-26T15:51:03.652Z,83.52
2022-10-26T15:56:17.401Z,83.50
2022-10-26T16:01:26.591Z,83.00
2022-10-26T16:06:37.263Z,83.14
2022-10-26T16:11:45.028Z,82.81
2022-10-26T16:16:51.572Z,82.77
2022-10-26T16:21:59.910Z,80.99
2022-10-26T16:27:10.788Z,80.52
2022-10-26T16:32:17.382Z,81.91
2022-10-26T16:37:25.979Z,81.48
2022-10-26T16:42:33.951Z,82.04
2022-10-26T16:47:40.775Z,81.80
2022-10-26T16:52:48.762Z,81.55
2022-10-26T16:57:55.995Z,79.44
2022-10-26T17:03:03.247Z,79.32
2022-10-26T17:08:12.424Z,79.62
2022-10-26T17:13:23.010Z,78.79
2022-10-26T17:18:31.004Z,80.32
2022-10-26T17:23:40.986Z,79.76
2022-10-26T17:28:56.189Z,79.39
2022-10-26T17:34:06.303Z,77.47
2022-10-26T17:39:16.916Z,78.67
2022-10-26T17:44:27.343Z,78.09
2022-10-26T17:49:41.313Z,79.46
2022-10-26T17:54:49.667Z,77.77
2022-10-26T17:59:57.264Z,78.25
2022-10-26T18:05:06.749Z,77.55
2022-10-26T18:10:37.046Z,77.94
2022-10-26T18:15:45.120Z,75.73
2022-10-26T18:21:08.630Z,77.45
2022-10-26T18:26:22.659Z,78.88
2022-10-26T18:31:33.264Z,78.74
2022-10-26T18:36:45.583Z,77.61
2022-10-26T18:41:54.509Z,78.73
2022-10-26T18:47:06.048Z,79.21
2022-10-26T18:52:14.680Z,80.39
2022-10-26T18:57:31.024Z,81.63
2022-10-26T19:08:12.003Z,81.83
2022-10-26T19:13:20.993Z,82.47
2022-10-26T19:18:30.046Z,82.13
2022-10-26T19:23:40.229Z,83.42
2022-10-26T19:28:49.465Z,83.91
2022-10-26T19:34:07.784Z,83.37
2022-10-26T19:39:18.325Z,83.12
2022-10-26T19:44:28.516Z,83.48
2022-10-26T19:49:39.679Z,84.03
2022-10-26T19:54:47.151Z,83.49
2022-10-26T19:59:55.871Z,83.66
2022-10-26T20:05:04.348Z,82.38
2022-10-26T20:10:14.207Z,83.25
2022-10-26T20:15:22.307Z,81.35
2022-10-26T20:20:33.761Z,81.82
2022-10-26T20:25:51.411Z,82.24
2022-10-26T20:31:02.223Z,80.72
2022-10-26T20:36:10.768Z,80.30
2022-10-26T20:41:23.019Z,81.24
2022-10-26T20:46:36.680Z,81.47
2022-10-26T20:52:15.740Z,81.58
2022-10-26T20:57:29.779Z,80.16
2022-10-26T21:02:38.224Z,79.61
2022-10-26T21:07:44.700Z,77.98
2022-10-26T21:12:55.263Z,100.00
2022-10-26T21:18:03.204Z,100.00
2022-10-26T21:23:09.844Z,77.98
2022-10-26T21:28:16.734Z,79.40
2022-10-26T21:33:32.281Z,80.48
2022-10-26T21:38:43.039Z,80.92
2022-10-26T21:44:03.381Z,80.42
2022-10-26T21:49:28.378Z,80.34
2022-10-26T21:54:39.270Z,79.78
2022-10-26T21:59:45.835Z,79.02
2022-10-26T22:04:53.437Z,79.07
2022-10-26T22:10:11.367Z,80.68
2022-10-26T22:15:25.665Z,79.07
2022-10-26T22:20:34.437Z,80.06
2022-10-26T22:25:40.726Z,81.14
2022-10-26T22:30:46.715Z,80.50
2022-10-26T22:35:54.175Z,81.44
2022-10-26T22:41:02.242Z,80.71
2022-10-26T22:46:11.537Z,80.28
2022-10-26T22:51:21.071Z,81.30
2022-10-26T22:56:28.352Z,80.89
2022-10-26T23:01:38.735Z,80.54
2022-10-26T23:06:46.122Z,82.05
2022-10-26T23:11:52.111Z,80.27
2022-10-26T23:16:57.960Z,81.22
2022-10-26T23:22:05.599Z,80.71
2022-10-26T23:27:11.283Z,79.97
2022-10-26T23:32:18.623Z,80.70
2022-10-26T23:37:25.865Z,81.40
2022-10-26T23:42:31.570Z,79.92
2022-10-26T23:47:37.325Z,80.42
2022-10-26T23:52:49.397Z,80.74
2022-10-26T23:57:55.253Z,80.34
